Time;durP1;ratioP1;P1;durP2;ratioP2;P2;SDS_P1;SDS_P2;PMS_P1;PMS_P2;Temp;Humidity;BMP_temperature;BMP_pressure;BME280_temperature;BME280_humidity;BME280_pressure;Samples;Min_cycle;Max_cycle;Signal;HPM_P1;HPM_P2
2022/06/22 00:04:56;;;;;;;3.80;1.40;;;20.50;99.90;;;;;;10491932;28;20251;-84
2022/06/22 00:10:18;;;;;;;1.48;1.33;;;20.50;99.90;;;;;;10473898;28;20210;-84
2022/06/22 00:16:01;;;;;;;2.45;1.20;;;20.50;99.90;;;;;;10474915;28;20254;-84
2022/06/22 00:21:28;;;;;;;1.65;1.40;;;20.50;99.90;;;;;;10491970;28;20606;-85
2022/06/22 00:26:36;;;;;;;3.30;1.77;;;20.50;99.90;;;;;;10464952;28;20233;-85
2022/06/22 00:31:44;;;;;;;1.35;1.20;;;20.50;99.90;;;;;;10473829;28;20234;-85
2022/06/22 00:36:55;;;;;;;1.92;1.52;;;20.50;99.90;;;;;;10457479;28;20578;-84
2022/06/22 00:42:14;;;;;;;2.72;1.50;;;20.40;99.90;;;;;;10472582;28;20574;-84
2022/06/22 00:47:33;;;;;;;1.00;0.88;;;20.50;99.90;;;;;;10491350;28;20237;-84
2022/06/22 00:52:52;;;;;;;1.30;1.20;;;20.50;99.90;;;;;;10473160;28;20280;-85
2022/06/22 00:58:15;;;;;;;1.67;1.30;;;20.40;99.90;;;;;;10431191;28;20264;-85
2022/06/22 01:03:22;;;;;;;1.58;1.40;;;20.40;99.90;;;;;;10478928;28;20283;-85
2022/06/22 01:08:35;;;;;;;2.90;1.50;;;20.40;99.90;;;;;;10472498;28;20206;-85
2022/06/22 01:13:42;;;;;;;1.98;1.38;;;20.40;99.90;;;;;;10491747;28;20287;-84
2022/06/22 01:19:12;;;;;;;2.40;1.10;;;20.40;99.90;;;;;;10480353;28;20726;-85
2022/06/22 01:24:33;;;;;;;1.70;1.23;;;20.40;99.90;;;;;;10462223;28;20287;-84
2022/06/22 01:29:55;;;;;;;1.17;1.08;;;20.40;99.90;;;;;;10515854;28;20235;-85
2022/06/22 01:35:02;;;;;;;2.22;1.17;;;20.40;99.90;;;;;;10521477;28;20631;-85
2022/06/22 01:40:13;;;;;;;1.98;1.55;;;20.40;99.90;;;;;;10498554;28;20234;-84
2022/06/22 01:45:37;;;;;;;2.15;1.10;;;20.40;99.90;;;;;;10437969;28;20692;-85
2022/06/22 01:50:47;;;;;;;1.40;1.25;;;20.40;99.90;;;;;;10456671;28;20284;-85
2022/06/22 01:56:39;;;;;;;1.60;1.20;;;20.40;99.90;;;;;;10438431;28;20266;-84
2022/06/22 02:01:56;;;;;;;1.27;1.08;;;20.40;99.90;;;;;;10248772;28;21023;-85
2022/06/22 02:13:02;;;;;;;1.00;0.90;;;20.40;99.90;;;;;;10270667;28;20256;-85
2022/06/22 02:18:13;;;;;;;2.45;1.38;;;20.40;99.90;;;;;;10285870;28;20241;-85
2022/06/22 02:23:32;;;;;;;2.10;1.55;;;20.40;99.90;;;;;;10287426;28;20244;-85
2022/06/22 02:28:37;;;;;;;2.53;1.48;;;20.40;99.90;;;;;;10254664;28;20291;-85
2022/06/22 02:33:43;;;;;;;2.83;1.40;;;20.40;99.90;;;;;;10275710;28;20249;-85
2022/06/22 02:38:48;;;;;;;1.45;1.15;;;20.40;99.90;;;;;;10416664;28;20657;-86
2022/06/22 02:49:35;;;;;;;1.33;1.00;;;20.40;99.90;;;;;;10326292;28;20307;-87
2022/06/22 02:55:01;;;;;;;1.02;0.93;;;20.40;99.90;;;;;;10297803;28;20339;-87
2022/06/22 03:00:05;;;;;;;1.35;1.25;;;20.40;99.90;;;;;;10297704;28;20237;-87
2022/06/22 03:05:10;;;;;;;1.42;1.33;;;20.50;99.90;;;;;;10314988;28;20269;-87
2022/06/22 03:10:30;;;;;;;0.90;0.90;;;20.40;99.90;;;;;;10324588;28;20228;-87
2022/06/22 03:15:36;;;;;;;1.17;1.08;;;20.40;99.90;;;;;;10317074;28;20298;-87
2022/06/22 03:20:52;;;;;;;1.15;0.90;;;20.40;99.90;;;;;;10445233;28;20237;-87
2022/06/22 03:26:06;;;;;;;1.58;1.20;;;20.50;99.90;;;;;;10447221;28;20806;-87
2022/06/22 03:31:14;;;;;;;1.63;1.30;;;20.50;99.90;;;;;;10472372;28;20256;-88
2022/06/22 03:36:25;;;;;;;1.67;1.58;;;20.50;99.90;;;;;;10473511;28;20657;-87
2022/06/22 03:41:33;;;;;;;3.03;1.27;;;20.50;99.90;;;;;;10472383;28;20258;-87
2022/06/22 03:46:43;;;;;;;1.80;1.00;;;20.50;99.90;;;;;;10454939;28;20222;-87
2022/06/22 03:52:08;;;;;;;3.05;1.40;;;20.50;99.90;;;;;;10483020;28;20230;-87
2022/06/22 03:57:16;;;;;;;2.17;1.33;;;20.50;99.90;;;;;;10473385;28;20311;-87
2022/06/22 04:02:19;;;;;;;1.48;1.35;;;20.50;99.90;;;;;;10474248;28;20221;-87
2022/06/22 04:07:28;;;;;;;1.52;1.35;;;20.50;99.90;;;;;;10473185;28;20273;-87
2022/06/22 04:12:45;;;;;;;1.88;1.48;;;20.50;99.90;;;;;;10462205;28;20288;-87
2022/06/22 04:17:59;;;;;;;1.10;0.95;;;20.50;99.90;;;;;;10456949;28;20749;-87
2022/06/22 04:23:02;;;;;;;1.50;1.30;;;20.60;99.90;;;;;;10472694;28;20249;-87
2022/06/22 04:28:12;;;;;;;1.80;1.42;;;20.60;99.90;;;;;;10473319;28;20198;-87
2022/06/22 04:33:39;;;;;;;1.40;1.30;;;20.80;99.90;;;;;;10491600;28;20245;-87
2022/06/22 04:38:57;;;;;;;1.55;1.35;;;21.10;99.90;;;;;;10455119;28;20268;-86
2022/06/22 04:44:04;;;;;;;1.50;1.25;;;21.00;99.90;;;;;;10472487;28;20234;-85
2022/06/22 04:49:19;;;;;;;2.08;1.55;;;20.80;99.90;;;;;;10471228;28;20214;-86
2022/06/22 04:54:30;;;;;;;1.42;1.30;;;20.70;99.90;;;;;;10472739;28;20253;-86
2022/06/22 04:59:33;;;;;;;1.42;1.33;;;20.70;99.90;;;;;;10491296;28;20670;-86
2022/06/22 05:04:42;;;;;;;1.58;1.30;;;20.70;99.90;;;;;;10470549;28;20287;-86
2022/06/22 05:09:47;;;;;;;1.50;1.40;;;20.70;99.90;;;;;;10456404;28;20233;-86
2022/06/22 05:14:52;;;;;;;2.25;1.42;;;20.80;99.90;;;;;;10434528;28;20280;-86
2022/06/22 05:20:00;;;;;;;1.48;1.20;;;20.80;99.90;;;;;;10472754;28;20205;-86
2022/06/22 05:25:07;;;;;;;1.75;1.38;;;20.70;99.90;;;;;;10490175;28;20238;-86
2022/06/22 05:30:10;;;;;;;4.75;1.88;;;20.80;99.90;;;;;;10470051;28;20910;-86
2022/06/22 05:35:19;;;;;;;2.15;1.95;;;20.80;99.90;;;;;;10472957;28;20253;-86
2022/06/22 05:40:25;;;;;;;1.60;1.42;;;20.80;99.90;;;;;;10490008;28;20249;-85
2022/06/22 05:45:33;;;;;;;1.67;1.50;;;20.90;99.90;;;;;;10489709;28;20230;-86
2022/06/22 05:50:43;;;;;;;1.27;1.17;;;20.90;99.90;;;;;;10489218;28;20229;-86
2022/06/22 05:55:58;;;;;;;2.53;1.60;;;20.90;99.90;;;;;;10455539;28;20254;-86
2022/06/22 06:01:03;;;;;;;1.73;1.42;;;20.90;99.90;;;;;;10491034;28;20792;-86
2022/06/22 06:06:21;;;;;;;1.67;1.58;;;20.90;99.90;;;;;;10496052;28;20260;-85
2022/06/22 06:11:32;;;;;;;2.00;1.25;;;20.90;99.90;;;;;;10477439;28;20241;-86
2022/06/22 06:16:42;;;;;;;1.60;1.45;;;20.80;99.90;;;;;;10455282;28;20247;-86
2022/06/22 06:21:46;;;;;;;6.22;2.55;;;21.00;99.90;;;;;;10493610;28;20206;-86
2022/06/22 06:32:44;;;;;;;1.40;1.30;;;21.00;99.90;;;;;;10503608;28;20280;-86
2022/06/22 06:38:01;;;;;;;1.38;1.27;;;21.20;99.90;;;;;;10478063;28;20806;-85
2022/06/22 06:43:28;;;;;;;1.52;1.25;;;21.30;99.90;;;;;;10475032;28;20254;-86
2022/06/22 06:48:33;;;;;;;1.48;1.20;;;21.10;99.90;;;;;;10483037;28;20782;-86
2022/06/22 06:53:54;;;;;;;2.05;1.50;;;21.10;99.90;;;;;;10458278;28;20275;-86
2022/06/22 06:59:02;;;;;;;1.13;1.02;;;21.40;99.90;;;;;;10494362;28;20315;-86
2022/06/22 07:04:14;;;;;;;2.15;1.23;;;21.20;99.90;;;;;;10474681;28;20630;-85
2022/06/22 07:09:30;;;;;;;2.70;1.90;;;21.40;99.90;;;;;;10493942;28;20226;-86
2022/06/22 07:14:39;;;;;;;3.25;1.40;;;20.20;99.90;;;;;;10475567;28;20631;-85
2022/06/22 07:20:04;;;;;;;1.88;1.70;;;20.80;99.90;;;;;;10475655;28;20229;-85
2022/06/22 07:25:30;;;;;;;2.75;1.73;;;21.40;99.90;;;;;;10474021;28;20743;-85
2022/06/22 07:30:47;;;;;;;1.75;1.58;;;21.60;99.90;;;;;;10474573;28;20283;-85
2022/06/22 07:36:01;;;;;;;1.48;1.35;;;21.70;99.90;;;;;;10474238;28;20329;-86
2022/06/22 07:41:19;;;;;;;2.75;1.48;;;21.70;99.90;;;;;;10474099;28;20250;-86
2022/06/22 07:46:42;;;;;;;2.28;1.45;;;21.80;99.90;;;;;;10473038;28;20307;-85
2022/06/22 07:51:49;;;;;;;4.53;1.38;;;21.80;99.90;;;;;;10472338;28;20237;-86
2022/06/22 07:57:04;;;;;;;1.60;1.33;;;21.70;96.60;;;;;;10474107;28;20311;-85
2022/06/22 08:02:25;;;;;;;2.15;1.60;;;21.40;99.90;;;;;;10460567;28;20690;-85
2022/06/22 08:07:41;;;;;;;1.30;1.20;;;21.70;99.90;;;;;;10483288;28;20628;-84
2022/06/22 08:13:00;;;;;;;4.68;2.42;;;21.80;99.90;;;;;;10447727;28;20255;-85
2022/06/22 08:18:04;;;;;;;1.67;1.20;;;21.90;99.90;;;;;;10472973;28;20241;-85
2022/06/22 08:23:10;;;;;;;1.58;1.15;;;21.80;99.90;;;;;;10491258;28;20621;-85
2022/06/22 08:28:36;;;;;;;1.38;1.17;;;21.60;99.90;;;;;;10475673;28;20229;-86
2022/06/22 08:33:44;;;;;;;1.73;1.38;;;21.80;99.90;;;;;;10490861;28;20234;-85
2022/06/22 08:38:56;;;;;;;1.73;1.40;;;21.80;99.90;;;;;;10472353;28;20202;-86
2022/06/22 08:44:24;;;;;;;1.75;1.40;;;21.40;97.80;;;;;;10487522;28;20270;-86
2022/06/22 08:49:41;;;;;;;3.08;1.52;;;21.80;99.90;;;;;;10488264;28;20229;-85
2022/06/22 09:00:59;;;;;;;2.45;1.50;;;21.60;95.50;;;;;;10539321;27;20561;-85
2022/06/22 09:06:17;;;;;;;2.22;1.38;;;21.60;98.90;;;;;;10452313;28;20296;-85
2022/06/22 09:11:44;;;;;;;4.10;1.58;;;21.80;99.90;;;;;;10487324;28;20272;-85
2022/06/22 09:17:17;;;;;;;3.13;1.48;;;21.90;97.20;;;;;;10513056;28;20285;-85
2022/06/22 09:22:33;;;;;;;4.82;1.42;;;22.00;99.90;;;;;;10482183;28;20237;-85
2022/06/22 09:27:53;;;;;;;1.50;1.35;;;21.70;95.50;;;;;;10496982;28;20236;-84
2022/06/22 09:33:16;;;;;;;1.98;1.40;;;21.90;98.30;;;;;;10496131;28;20287;-86
2022/06/22 09:38:56;;;;;;;1.88;1.52;;;22.10;99.90;;;;;;10486291;28;20279;-85
2022/06/22 09:44:16;;;;;;;1.88;1.67;;;21.90;99.70;;;;;;10484094;28;20664;-86
2022/06/22 09:49:51;;;;;;;4.90;2.40;;;22.00;99.90;;;;;;10540818;28;20206;-86
2022/06/22 10:00:31;;;;;;;1.50;1.40;;;22.00;98.60;;;;;;10519127;28;20233;-86
2022/06/22 10:05:45;;;;;;;2.05;1.30;;;22.10;99.90;;;;;;10523420;28;20302;-86
2022/06/22 10:11:10;;;;;;;8.10;1.67;;;21.90;98.00;;;;;;10513155;28;20278;-88
2022/06/22 10:16:19;;;;;;;2.45;1.40;;;22.10;97.50;;;;;;10510030;28;20662;-87
2022/06/22 10:21:41;;;;;;;2.13;1.80;;;22.20;94.80;;;;;;10494929;28;20617;-86
2022/06/22 10:26:53;;;;;;;3.47;1.00;;;22.20;98.40;;;;;;10495302;28;20264;-87
2022/06/22 10:32:17;;;;;;;3.45;1.40;;;22.30;98.80;;;;;;10521659;28;20229;-86
2022/06/22 10:37:20;;;;;;;1.80;1.40;;;22.40;95.70;;;;;;10497679;28;20257;-86
2022/06/22 10:48:05;;;;;;;1.95;1.40;;;22.30;96.70;;;;;;10455522;28;20191;-87
2022/06/22 10:53:35;;;;;;;3.30;1.58;;;22.40;94.50;;;;;;10469634;28;20576;-86
2022/06/22 10:58:56;;;;;;;2.65;1.55;;;22.60;95.50;;;;;;10487564;28;20288;-86
2022/06/22 11:04:26;;;;;;;2.20;1.40;;;22.70;94.50;;;;;;10514733;28;20235;-86
2022/06/22 11:10:00;;;;;;;2.30;1.30;;;22.60;93.90;;;;;;10495249;28;20222;-86
2022/06/22 11:15:39;;;;;;;2.10;1.65;;;22.50;96.10;;;;;;10488842;28;20229;-86
2022/06/22 11:21:02;;;;;;;1.55;1.40;;;22.70;97.00;;;;;;10474899;28;20246;-86
2022/06/22 11:31:52;;;;;;;2.47;1.40;;;23.10;95.50;;;;;;10492627;28;20682;-86
2022/06/22 11:36:55;;;;;;;1.85;1.55;;;22.90;94.20;;;;;;10492767;28;20287;-86
2022/06/22 11:42:42;;;;;;;1.40;1.30;;;23.10;95.00;;;;;;10509230;28;20664;-86
2022/06/22 11:48:06;;;;;;;4.70;1.45;;;23.00;97.20;;;;;;10507854;28;20358;-86
2022/06/22 11:53:41;;;;;;;1.42;1.13;;;23.00;93.10;;;;;;10526616;28;20290;-86
2022/06/22 11:59:10;;;;;;;3.33;1.77;;;23.10;92.60;;;;;;10524778;28;20333;-86
2022/06/22 12:04:16;;;;;;;3.20;1.40;;;23.20;96.60;;;;;;10504219;28;20229;-86
2022/06/22 12:09:50;;;;;;;2.15;1.75;;;23.20;95.90;;;;;;10504250;28;20720;-86
2022/06/22 12:15:26;;;;;;;2.20;1.42;;;22.70;95.20;;;;;;10490572;28;20663;-86
2022/06/22 12:20:58;;;;;;;3.80;1.45;;;23.00;92.10;;;;;;10508541;28;20265;-92
2022/06/22 12:26:16;;;;;;;5.20;1.42;;;23.00;91.90;;;;;;10495523;28;20233;-86
2022/06/22 12:31:20;;;;;;;2.95;1.08;;;22.90;90.30;;;;;;10490647;28;20233;-86
2022/06/22 12:36:24;;;;;;;2.45;1.42;;;22.80;90.40;;;;;;10490869;28;20642;-86
2022/06/22 12:41:50;;;;;;;3.22;1.17;;;23.10;91.00;;;;;;10490951;28;20568;-86
2022/06/22 12:47:14;;;;;;;3.25;1.63;;;22.80;91.60;;;;;;10491848;28;20237;-86
2022/06/22 12:52:28;;;;;;;4.38;1.50;;;23.00;91.20;;;;;;10490268;28;20234;-86
2022/06/22 12:57:45;;;;;;;4.57;1.20;;;23.10;91.70;;;;;;10489899;28;20273;-86
2022/06/22 13:02:51;;;;;;;2.35;1.00;;;23.10;91.70;;;;;;10491735;28;20229;-87
2022/06/22 13:08:07;;;;;;;2.60;1.10;;;23.10;87.30;;;;;;10490093;28;20242;-87
2022/06/22 13:13:42;;;;;;;1.95;1.10;;;23.20;85.40;;;;;;10490146;28;20626;-86
2022/06/22 13:19:16;;;;;;;1.88;1.20;;;23.50;90.90;;;;;;10484467;28;20339;-86
2022/06/22 13:24:45;;;;;;;2.45;1.77;;;23.20;78.90;;;;;;10490119;28;20221;-87
2022/06/22 13:29:57;;;;;;;3.20;1.42;;;23.20;87.50;;;;;;10489371;28;20619;-87
2022/06/22 13:35:35;;;;;;;1.77;1.17;;;23.40;85.60;;;;;;10490756;28;20290;-87
2022/06/22 13:41:06;;;;;;;1.48;1.10;;;23.30;90.60;;;;;;10489837;28;20311;-87
2022/06/22 13:46:32;;;;;;;1.58;1.00;;;23.40;91.50;;;;;;10495876;28;20217;-86
2022/06/22 13:52:12;;;;;;;3.03;1.30;;;23.30;91.60;;;;;;10496951;28;20241;-87
2022/06/22 13:57:39;;;;;;;1.77;1.58;;;23.40;85.80;;;;;;10497713;28;20261;-87
2022/06/22 14:03:02;;;;;;;3.08;0.88;;;23.70;84.30;;;;;;10492820;28;20233;-92
2022/06/22 14:08:14;;;;;;;4.95;1.20;;;23.70;87.40;;;;;;10501970;28;20210;-87
2022/06/22 14:13:32;;;;;;;2.45;1.02;;;23.70;79.20;;;;;;10491495;28;20600;-87
2022/06/22 14:18:59;;;;;;;1.00;0.90;;;23.70;78.90;;;;;;10513091;28;20298;-87
2022/06/22 14:24:18;;;;;;;2.63;1.30;;;23.70;79.70;;;;;;10500799;28;20279;-86
2022/06/22 14:29:50;;;;;;;1.65;1.15;;;23.70;80.90;;;;;;10477880;28;20280;-87
2022/06/22 14:35:13;;;;;;;1.35;0.90;;;23.60;80.80;;;;;;10483464;28;20247;-86
2022/06/22 14:40:29;;;;;;;3.05;1.30;;;23.60;83.60;;;;;;10495673;28;20285;-86
2022/06/22 14:45:47;;;;;;;1.73;0.80;;;23.50;83.20;;;;;;10492415;28;20217;-86
2022/06/22 14:51:14;;;;;;;3.10;1.00;;;23.60;77.70;;;;;;10495019;28;20243;-86
2022/06/22 14:56:43;;;;;;;1.67;1.23;;;23.50;84.70;;;;;;10485968;28;20315;-86
2022/06/22 15:02:07;;;;;;;2.47;0.85;;;23.40;85.90;;;;;;10493700;28;20233;-86
2022/06/22 15:07:18;;;;;;;2.15;1.10;;;23.30;79.50;;;;;;10142318;27;10000017;-85
2022/06/22 15:12:57;;;;;;;1.45;1.35;;;23.50;80.20;;;;;;10468006;28;20222;-86
2022/06/22 15:18:16;;;;;;;1.67;1.10;;;23.70;83.00;;;;;;10515513;28;20242;-85
2022/06/22 15:23:36;;;;;;;1.17;1.08;;;23.40;82.90;;;;;;10488809;28;20235;-86
2022/06/22 15:28:44;;;;;;;1.85;1.00;;;23.50;86.70;;;;;;10448659;28;20234;-86
2022/06/22 15:33:54;;;;;;;1.40;1.30;;;23.60;75.70;;;;;;10466840;28;20795;-86
2022/06/22 15:39:11;;;;;;;3.53;1.40;;;23.50;87.50;;;;;;10498158;28;20326;-86
2022/06/22 15:44:24;;;;;;;1.88;0.90;;;23.50;78.50;;;;;;10471397;28;20226;-86
2022/06/22 15:49:37;;;;;;;3.55;1.30;;;23.70;87.10;;;;;;10446251;28;20252;-86
2022/06/22 15:55:04;;;;;;;1.55;0.95;;;23.60;87.40;;;;;;10494297;28;20230;-86
2022/06/22 16:00:34;;;;;;;1.60;1.10;;;23.70;77.60;;;;;;10489099;28;20262;-86
2022/06/22 16:05:45;;;;;;;1.38;1.20;;;23.60;85.80;;;;;;10463540;28;20243;-86
2022/06/22 16:16:43;;;;;;;6.22;1.83;;;23.70;86.40;;;;;;10488178;28;20229;-86
2022/06/22 16:22:05;;;;;;;3.42;1.40;;;23.80;76.80;;;;;;10497516;28;20236;-86
2022/06/22 16:27:24;;;;;;;1.30;1.20;;;23.80;82.30;;;;;;10491608;28;20303;-86
2022/06/22 16:33:00;;;;;;;2.08;1.17;;;23.80;87.30;;;;;;10499435;28;20278;-86
2022/06/22 16:38:16;;;;;;;1.65;1.00;;;23.70;80.60;;;;;;10492433;28;20675;-86
2022/06/22 16:43:31;;;;;;;2.65;1.38;;;24.10;80.90;;;;;;10489294;28;20229;-86
2022/06/22 16:48:40;;;;;;;1.83;1.00;;;24.30;73.90;;;;;;10458565;28;20230;-86
2022/06/22 16:53:43;;;;;;;3.90;1.38;;;24.20;85.60;;;;;;10447736;28;20242;-86
2022/06/22 16:58:47;;;;;;;2.03;1.20;;;24.20;84.60;;;;;;10444008;28;20258;-86
2022/06/22 17:04:14;;;;;;;3.25;1.05;;;24.20;82.80;;;;;;10457090;28;20222;-86
2022/06/22 17:09:35;;;;;;;1.25;1.13;;;24.20;87.10;;;;;;10418372;28;20238;-86
2022/06/22 17:14:42;;;;;;;1.40;1.08;;;23.90;89.10;;;;;;10463394;28;20247;-86
2022/06/22 17:20:02;;;;;;;6.97;1.80;;;23.80;88.60;;;;;;10474725;28;20261;-86
2022/06/22 17:25:17;;;;;;;2.08;1.05;;;24.00;85.80;;;;;;10451294;28;20265;-87
2022/06/22 17:30:29;;;;;;;3.35;0.98;;;24.10;84.50;;;;;;10456150;28;20223;-86
2022/06/22 17:35:59;;;;;;;5.97;1.30;;;24.20;83.80;;;;;;10461590;28;20234;-86
2022/06/22 17:41:11;;;;;;;2.85;1.10;;;24.10;79.10;;;;;;10451305;28;20284;-84
2022/06/22 17:46:19;;;;;;;2.60;1.30;;;24.10;85.50;;;;;;10453156;28;20206;-84
2022/06/22 17:51:33;;;;;;;2.22;1.20;;;24.00;87.50;;;;;;10482742;28;20234;-85
2022/06/22 17:56:43;;;;;;;2.70;1.27;;;24.00;87.80;;;;;;10464686;28;20308;-86
2022/06/22 18:01:58;;;;;;;6.07;1.30;;;23.80;84.90;;;;;;10455658;28;20380;-87
2022/06/22 18:07:11;;;;;;;2.13;1.08;;;23.80;88.00;;;;;;10468299;28;20732;-89
2022/06/22 18:12:17;;;;;;;5.97;1.45;;;23.70;85.40;;;;;;10454301;28;20195;-86
2022/06/22 18:17:22;;;;;;;2.78;1.23;;;23.10;88.40;;;;;;10455359;28;20691;-87
2022/06/22 18:22:30;;;;;;;2.80;1.20;;;22.90;92.20;;;;;;10453065;28;20226;-87
2022/06/22 18:27:42;;;;;;;2.28;1.35;;;22.90;93.40;;;;;;10453205;28;20609;-87
2022/06/22 18:32:51;;;;;;;1.92;1.20;;;22.70;93.10;;;;;;10452058;28;20230;-87
2022/06/22 18:38:08;;;;;;;2.17;1.25;;;22.50;94.70;;;;;;10451379;28;20250;-88
2022/06/22 18:43:18;;;;;;;2.83;1.75;;;22.30;95.70;;;;;;10452020;28;20226;-87
2022/06/22 18:48:34;;;;;;;1.98;1.70;;;22.20;96.40;;;;;;10455002;28;20226;-85
2022/06/22 18:53:36;;;;;;;1.45;1.35;;;22.10;97.20;;;;;;10453191;28;20206;-86
2022/06/22 18:58:47;;;;;;;3.08;1.17;;;22.00;97.70;;;;;;10453647;28;20616;-87
2022/06/22 19:03:59;;;;;;;2.42;1.60;;;21.90;98.10;;;;;;10452594;28;20218;-87
2022/06/22 19:09:15;;;;;;;1.63;1.38;;;21.80;98.60;;;;;;10451847;28;20242;-87
2022/06/22 19:14:19;;;;;;;3.65;1.35;;;21.70;99.10;;;;;;10453750;28;20276;-87
2022/06/22 19:19:30;;;;;;;1.40;1.30;;;21.70;99.50;;;;;;10452136;28;20675;-86
2022/06/22 19:24:48;;;;;;;1.13;1.02;;;21.60;99.90;;;;;;10455094;28;20215;-87
2022/06/22 19:29:50;;;;;;;1.73;1.30;;;21.50;99.90;;;;;;10454639;28;20574;-87
2022/06/22 19:34:59;;;;;;;6.38;2.50;;;21.50;99.90;;;;;;10475622;28;20198;-94
2022/06/22 19:40:10;;;;;;;3.28;2.30;;;21.10;99.90;;;;;;10449145;28;20342;-86
2022/06/22 19:45:23;;;;;;;2.70;2.08;;;20.70;99.90;;;;;;10450333;28;20226;-87
2022/06/22 19:51:02;;;;;;;3.25;2.45;;;21.10;99.90;;;;;;10474340;28;20279;-86
2022/06/22 19:56:27;;;;;;;2.10;1.92;;;21.10;99.90;;;;;;10079567;28;9999869;-86
2022/06/22 20:01:39;;;;;;;4.32;2.53;;;21.20;99.90;;;;;;10453404;28;20250;-87
2022/06/22 20:06:47;;;;;;;2.17;1.92;;;21.10;99.90;;;;;;10412834;28;20230;-87
2022/06/22 20:12:00;;;;;;;3.85;2.53;;;21.20;99.90;;;;;;10455492;28;20696;-86
2022/06/22 20:17:12;;;;;;;2.83;2.08;;;21.20;99.90;;;;;;10489177;28;20259;-86
2022/06/22 20:22:18;;;;;;;3.97;2.40;;;21.20;99.90;;;;;;10488622;28;20872;-87
2022/06/22 20:27:40;;;;;;;2.75;2.13;;;21.10;99.90;;;;;;10480078;28;20226;-86
2022/06/22 20:32:43;;;;;;;2.35;2.05;;;21.10;99.90;;;;;;10402664;28;20231;-87
2022/06/22 20:37:49;;;;;;;2.38;1.90;;;21.20;99.90;;;;;;10475468;28;20288;-87
2022/06/22 20:43:01;;;;;;;3.03;2.20;;;21.20;99.90;;;;;;10444837;28;20307;-87
2022/06/22 20:48:27;;;;;;;2.03;1.83;;;21.10;99.90;;;;;;10431938;28;20549;-87
2022/06/22 20:53:58;;;;;;;4.05;2.28;;;21.10;99.90;;;;;;10445598;28;20242;-87
2022/06/22 20:59:10;;;;;;;2.10;1.90;;;21.10;99.90;;;;;;10442046;28;20323;-87
2022/06/22 21:04:12;;;;;;;2.65;2.25;;;21.10;99.90;;;;;;10444541;28;20230;-87
2022/06/22 21:09:18;;;;;;;3.63;1.90;;;21.10;99.90;;;;;;10445735;28;20235;-88
2022/06/22 21:14:25;;;;;;;2.60;1.83;;;21.10;99.90;;;;;;10427538;28;20238;-87
2022/06/22 21:20:01;;;;;;;2.45;2.08;;;21.00;99.90;;;;;;10477485;28;20311;-87
2022/06/22 21:25:14;;;;;;;2.55;1.85;;;20.90;99.90;;;;;;10407441;28;20536;-87
2022/06/22 21:30:20;;;;;;;3.20;2.20;;;20.90;99.90;;;;;;10416876;28;20239;-86
2022/06/22 21:35:33;;;;;;;2.20;2.00;;;20.90;99.90;;;;;;10411087;28;20709;-86
2022/06/22 21:40:50;;;;;;;2.67;2.00;;;20.90;99.90;;;;;;10421592;28;20310;-87
2022/06/22 21:46:03;;;;;;;2.25;1.77;;;20.80;99.90;;;;;;10412888;28;20298;-85
2022/06/22 21:51:24;;;;;;;2.20;1.92;;;20.80;99.90;;;;;;10398379;28;20282;-84
2022/06/22 21:56:47;;;;;;;2.15;1.67;;;20.70;99.90;;;;;;10431309;28;20319;-84
2022/06/22 22:02:05;;;;;;;2.00;1.80;;;20.70;99.90;;;;;;10470436;28;20265;-84
2022/06/22 22:07:08;;;;;;;3.55;2.28;;;20.80;99.90;;;;;;10439664;28;20230;-84
2022/06/22 22:12:17;;;;;;;3.03;1.92;;;20.80;99.90;;;;;;10466852;28;20299;-84
2022/06/22 22:17:29;;;;;;;3.80;2.03;;;20.80;99.90;;;;;;10459237;28;20702;-85
2022/06/22 22:22:37;;;;;;;1.92;1.77;;;20.70;99.90;;;;;;10462099;28;20281;-85
2022/06/22 22:27:44;;;;;;;3.83;2.28;;;20.70;99.90;;;;;;10464018;28;20284;-85
2022/06/22 22:32:48;;;;;;;1.92;1.73;;;20.70;99.90;;;;;;10457457;28;20226;-85
2022/06/22 22:37:51;;;;;;;2.70;1.98;;;20.70;99.90;;;;;;10493866;28;20584;-85
2022/06/22 22:42:55;;;;;;;2.55;1.88;;;20.70;99.90;;;;;;10479093;28;20632;-87
2022/06/22 22:47:59;;;;;;;2.83;2.03;;;20.70;99.90;;;;;;10453528;28;20260;-88
2022/06/22 22:53:05;;;;;;;1.77;1.67;;;20.70;99.90;;;;;;10467878;28;20279;-87
2022/06/22 22:58:30;;;;;;;2.67;2.15;;;20.70;99.90;;;;;;10494840;28;20308;-88
2022/06/22 23:03:39;;;;;;;2.65;2.00;;;20.70;99.90;;;;;;10475962;28;20206;-87
2022/06/22 23:08:46;;;;;;;3.42;2.05;;;20.70;99.90;;;;;;10494283;28;20573;-88
2022/06/22 23:13:52;;;;;;;2.58;2.22;;;20.60;99.90;;;;;;10496373;28;20256;-87
2022/06/22 23:18:56;;;;;;;3.13;2.03;;;20.70;99.90;;;;;;10451607;28;20219;-87
2022/06/22 23:24:02;;;;;;;2.13;1.88;;;20.60;99.90;;;;;;10467285;28;20226;-87
2022/06/22 23:29:05;;;;;;;2.53;2.13;;;20.70;99.90;;;;;;10490688;28;20699;-87
2022/06/22 23:34:44;;;;;;;1.80;1.70;;;20.60;99.90;;;;;;10493541;28;20238;-88
2022/06/22 23:39:46;;;;;;;2.03;1.80;;;20.60;99.90;;;;;;10428318;28;20350;-88
2022/06/22 23:44:50;;;;;;;2.13;2.03;;;20.60;99.90;;;;;;10403506;28;20235;-87
2022/06/22 23:49:54;;;;;;;4.75;2.92;;;20.60;99.90;;;;;;10404688;28;20261;-88
2022/06/22 23:54:57;;;;;;;2.80;2.00;;;20.60;99.90;;;;;;10415065;28;20813;-87
